Time;durP1;ratioP1;P1;durP2;ratioP2;P2;SDS_P1;SDS_P2;PMS_P1;PMS_P2;Temp;Humidity;BMP_temperature;BMP_pressure;BME280_temperature;BME280_humidity;BME280_pressure;Samples;Min_cycle;Max_cycle;Signal;HPM_P1;HPM_P2
2022/07/19 00:01:41;;;;;;;;;;;461.20;1740.80;;;;;;5092031;28;20007;-58
2022/07/19 00:04:06;;;;;;;;;;;461.10;1766.40;;;;;;5092008;28;19908;-59
2022/07/19 00:06:32;;;;;;;;;;;461.10;1766.40;;;;;;5092181;28;20043;-58
2022/07/19 00:08:58;;;;;;;;;;;461.10;1766.40;;;;;;5092069;28;19950;-58
2022/07/19 00:11:23;;;;;;;;;;;461.00;1740.80;;;;;;5091726;28;19912;-57
2022/07/19 00:13:49;;;;;;;;;;;461.10;1740.80;;;;;;5091891;28;20011;-58
2022/07/19 00:16:14;;;;;;;;;;;461.10;1740.80;;;;;;5091759;28;19908;-57
2022/07/19 00:18:40;;;;;;;;;;;461.10;1740.80;;;;;;5092036;28;19931;-57
2022/07/19 00:21:06;;;;;;;;;;;461.10;1740.80;;;;;;5091732;28;19908;-57
2022/07/19 00:23:32;;;;;;;;;;;461.10;1740.80;;;;;;5091766;28;19955;-57
2022/07/19 00:25:57;;;;;;;;;;;461.10;1740.80;;;;;;5091681;28;19915;-58
2022/07/19 00:28:23;;;;;;;;;;;461.00;1766.40;;;;;;5091611;28;20423;-58
2022/07/19 00:30:48;;;;;;;;;;;460.90;1766.40;;;;;;5091343;28;20320;-58
2022/07/19 00:33:14;;;;;;;;;;;460.90;1766.40;;;;;;5091274;28;20353;-58
2022/07/19 00:35:40;;;;;;;;;;;460.80;1766.40;;;;;;5091576;28;19916;-57
2022/07/19 00:38:06;;;;;;;;;;;460.90;1766.40;;;;;;5091293;28;19908;-58
2022/07/19 00:40:32;;;;;;;;;;;460.80;1792.00;;;;;;5091462;28;19912;-58
2022/07/19 00:42:57;;;;;;;;;;;460.80;1792.00;;;;;;5091434;28;20003;-57
2022/07/19 00:45:23;;;;;;;;;;;460.80;1792.00;;;;;;5091355;28;19919;-58
2022/07/19 00:47:49;;;;;;;;;;;436.00;1792.00;;;;;;5091268;28;20320;-58
2022/07/19 00:50:14;;;;;;;;;;;436.00;1792.00;;;;;;5091102;28;19908;-58
2022/07/19 00:52:40;;;;;;;;;;;436.00;1792.00;;;;;;5091296;28;19912;-58
2022/07/19 00:55:07;;;;;;;;;;;436.00;1766.40;;;;;;5090880;28;19967;-58
2022/07/19 00:57:33;;;;;;;;;;;436.00;1792.00;;;;;;5091025;28;19908;-59
2022/07/19 00:59:59;;;;;;;;;;;436.00;1792.00;;;;;;5091005;28;19909;-58
2022/07/19 01:02:25;;;;;;;;;;;435.90;1792.00;;;;;;5091178;28;19923;-58
2022/07/19 01:04:51;;;;;;;;;;;435.80;1817.60;;;;;;5090970;28;20029;-58
2022/07/19 01:07:16;;;;;;;;;;;435.80;1817.60;;;;;;5091007;28;19908;-57
2022/07/19 01:09:42;;;;;;;;;;;435.80;1817.60;;;;;;5091073;28;19908;-58
2022/07/19 01:12:08;;;;;;;;;;;435.80;1817.60;;;;;;5090819;28;19912;-58
2022/07/19 01:14:35;;;;;;;;;;;435.80;1817.60;;;;;;5090920;28;20003;-58
2022/07/19 01:17:01;;;;;;;;;;;435.60;1817.60;;;;;;5090965;28;19909;-58
2022/07/19 01:19:27;;;;;;;;;;;435.60;1817.60;;;;;;5090779;28;19943;-58
2022/07/19 01:21:52;;;;;;;;;;;435.60;1817.60;;;;;;5090912;28;19954;-57
2022/07/19 01:24:18;;;;;;;;;;;435.60;1817.60;;;;;;5090797;28;19916;-58
2022/07/19 01:26:44;;;;;;;;;;;435.60;1817.60;;;;;;5090580;28;19912;-58
2022/07/19 01:29:14;;;;;;;;;;;435.60;1817.60;;;;;;5091006;28;19908;-58
2022/07/19 01:31:40;;;;;;;;;;;435.50;1843.20;;;;;;5090645;28;19908;-58
2022/07/19 01:34:05;;;;;;;;;;;435.30;1868.80;;;;;;5090604;28;19916;-58
2022/07/19 01:36:31;;;;;;;;;;;435.30;1868.80;;;;;;5090771;28;19908;-58
2022/07/19 01:38:56;;;;;;;;;;;435.30;1868.80;;;;;;5090556;28;20365;-58
2022/07/19 01:41:22;;;;;;;;;;;435.30;1868.80;;;;;;5089528;28;19924;-59
2022/07/19 01:43:47;;;;;;;;;;;435.40;1868.80;;;;;;5090637;28;19919;-58
2022/07/19 01:46:13;;;;;;;;;;;435.40;1868.80;;;;;;5090616;28;20369;-59
2022/07/19 01:48:39;;;;;;;;;;;435.50;1868.80;;;;;;5090521;28;19908;-58
2022/07/19 01:51:05;;;;;;;;;;;435.30;1868.80;;;;;;5090490;28;19915;-58
2022/07/19 01:53:30;;;;;;;;;;;435.30;1868.80;;;;;;5090416;28;19909;-58
2022/07/19 01:55:56;;;;;;;;;;;435.30;1868.80;;;;;;5090277;28;19915;-57
2022/07/19 01:58:21;;;;;;;;;;;435.30;1868.80;;;;;;5090698;28;19916;-58
2022/07/19 02:00:47;;;;;;;;;;;435.30;1868.80;;;;;;5090105;28;20277;-57
2022/07/19 02:03:12;;;;;;;;;;;435.30;1894.40;;;;;;5089386;28;19908;-58
2022/07/19 02:05:38;;;;;;;;;;;435.30;1894.40;;;;;;5090404;28;19946;-58
2022/07/19 02:08:04;;;;;;;;;;;435.20;1894.40;;;;;;5090141;28;20273;-57
2022/07/19 02:10:29;;;;;;;;;;;435.20;1894.40;;;;;;5090333;28;19959;-57
2022/07/19 02:12:55;;;;;;;;;;;410.50;1920.00;;;;;;5090254;28;19912;-57
2022/07/19 02:15:21;;;;;;;;;;;435.20;1894.40;;;;;;5090359;28;20314;-57
2022/07/19 02:17:46;;;;;;;;;;;410.50;1894.40;;;;;;5089896;28;19908;-58
2022/07/19 02:20:12;;;;;;;;;;;435.20;1894.40;;;;;;5090417;28;19908;-58
2022/07/19 02:22:38;;;;;;;;;;;410.50;1920.00;;;;;;5090269;28;19915;-57
2022/07/19 02:25:04;;;;;;;;;;;410.50;1920.00;;;;;;5090006;28;19912;-58
2022/07/19 02:27:29;;;;;;;;;;;435.20;1920.00;;;;;;5090184;28;19916;-58
2022/07/19 02:29:55;;;;;;;;;;;435.20;1894.40;;;;;;5090394;28;19915;-57
2022/07/19 02:32:20;;;;;;;;;;;410.50;1920.00;;;;;;5090016;28;20338;-58
2022/07/19 02:34:46;;;;;;;;;;;410.50;1920.00;;;;;;5089942;28;19924;-58
2022/07/19 02:37:11;;;;;;;;;;;435.20;1920.00;;;;;;5090323;28;19908;-58
2022/07/19 02:39:37;;;;;;;;;;;410.50;1945.60;;;;;;5089905;28;19908;-58
2022/07/19 02:42:03;;;;;;;;;;;410.40;1945.60;;;;;;5089960;28;19916;-57
2022/07/19 02:44:28;;;;;;;;;;;410.50;1920.00;;;;;;5090162;28;19912;-58
2022/07/19 02:46:54;;;;;;;;;;;410.40;1945.60;;;;;;5090093;28;19973;-58
2022/07/19 02:49:20;;;;;;;;;;;410.40;1920.00;;;;;;5090046;28;19908;-58
2022/07/19 02:51:46;;;;;;;;;;;410.30;1945.60;;;;;;5089441;28;20316;-58
2022/07/19 02:54:11;;;;;;;;;;;410.30;1945.60;;;;;;5093218;28;19916;-57
2022/07/19 02:56:37;;;;;;;;;;;410.40;1945.60;;;;;;5093336;28;19954;-58
2022/07/19 02:59:05;;;;;;;;;;;410.40;1945.60;;;;;;5093384;28;20333;-58
2022/07/19 03:01:31;;;;;;;;;;;410.30;1971.20;;;;;;5093435;28;19920;-57
2022/07/19 03:03:57;;;;;;;;;;;410.30;1996.80;;;;;;5093212;28;19908;-58
2022/07/19 03:06:23;;;;;;;;;;;410.30;1996.80;;;;;;5093331;28;19953;-57
2022/07/19 03:08:48;;;;;;;;;;;410.30;1996.80;;;;;;5093399;28;19912;-58
2022/07/19 03:11:14;;;;;;;;;;;410.20;1996.80;;;;;;5093030;28;20017;-58
2022/07/19 03:13:40;;;;;;;;;;;410.20;2022.40;;;;;;5093121;28;19912;-57
2022/07/19 03:16:05;;;;;;;;;;;410.30;1996.80;;;;;;5092930;28;19922;-58
2022/07/19 03:18:31;;;;;;;;;;;410.40;1996.80;;;;;;5093216;28;19951;-57
2022/07/19 03:20:58;;;;;;;;;;;410.40;1996.80;;;;;;5093154;28;19998;-57
2022/07/19 03:23:27;;;;;;;;;;;410.40;1996.80;;;;;;5092928;28;19908;-58
2022/07/19 03:25:52;;;;;;;;;;;410.50;1996.80;;;;;;5093039;28;19909;-58
2022/07/19 03:28:18;;;;;;;;;;;435.20;1996.80;;;;;;5092847;28;20003;-58
2022/07/19 03:30:44;;;;;;;;;;;410.50;2022.40;;;;;;5092784;28;19958;-58
2022/07/19 03:33:10;;;;;;;;;;;410.50;2022.40;;;;;;5092816;28;20282;-58
2022/07/19 03:35:36;;;;;;;;;;;410.40;1996.80;;;;;;5092754;28;19916;-57
2022/07/19 03:38:01;;;;;;;;;;;435.20;2022.40;;;;;;5092802;28;19961;-58
2022/07/19 03:40:27;;;;;;;;;;;435.20;2022.40;;;;;;5092455;28;19974;-59
2022/07/19 03:42:53;;;;;;;;;;;435.20;1996.80;;;;;;5092707;28;19919;-58
2022/07/19 03:45:18;;;;;;;;;;;435.30;1971.20;;;;;;5092476;28;20014;-58
2022/07/19 03:47:44;;;;;;;;;;;435.30;1996.80;;;;;;5092506;28;19958;-58
2022/07/19 03:50:09;;;;;;;;;;;435.30;2022.40;;;;;;5092560;28;19908;-58
2022/07/19 03:52:35;;;;;;;;;;;435.30;1996.80;;;;;;5090602;28;19994;-57
2022/07/19 03:55:01;;;;;;;;;;;435.30;1996.80;;;;;;5092378;28;20343;-58
2022/07/19 03:57:26;;;;;;;;;;;435.30;1996.80;;;;;;5092280;28;19912;-58
2022/07/19 03:59:52;;;;;;;;;;;435.50;1996.80;;;;;;5092096;28;19912;-57
2022/07/19 04:02:17;;;;;;;;;;;435.60;1996.80;;;;;;5092301;28;20376;-58
2022/07/19 04:04:43;;;;;;;;;;;435.60;1996.80;;;;;;5091377;28;19908;-58
2022/07/19 04:07:08;;;;;;;;;;;435.60;1996.80;;;;;;5092300;28;19908;-57
2022/07/19 04:09:34;;;;;;;;;;;435.70;1996.80;;;;;;5092034;28;19912;-58
2022/07/19 04:12:00;;;;;;;;;;;435.70;1971.20;;;;;;5092036;28;20292;-58
2022/07/19 04:14:25;;;;;;;;;;;435.80;1971.20;;;;;;5091874;28;19920;-57
2022/07/19 04:16:51;;;;;;;;;;;435.90;1971.20;;;;;;5091980;28;20242;-57
2022/07/19 04:19:16;;;;;;;;;;;435.90;1971.20;;;;;;5091923;28;20312;-58
2022/07/19 04:21:42;;;;;;;;;;;436.00;1971.20;;;;;;5091945;28;20362;-58
2022/07/19 04:24:07;;;;;;;;;;;436.00;1945.60;;;;;;5091760;28;20424;-58
2022/07/19 04:26:33;;;;;;;;;;;436.10;1945.60;;;;;;5091825;28;19959;-57
2022/07/19 04:28:58;;;;;;;;;;;460.80;1971.20;;;;;;5092009;28;19908;-58
2022/07/19 04:31:24;;;;;;;;;;;461.00;1945.60;;;;;;5091534;28;19912;-57
2022/07/19 04:33:49;;;;;;;;;;;461.00;1945.60;;;;;;5091405;28;20354;-57
2022/07/19 04:36:15;;;;;;;;;;;461.10;1945.60;;;;;;5091593;28;19919;-56
2022/07/19 04:38:41;;;;;;;;;;;461.10;1920.00;;;;;;5091556;28;19908;-58
2022/07/19 04:41:06;;;;;;;;;;;461.30;1920.00;;;;;;5091278;28;19919;-58
2022/07/19 04:43:32;;;;;;;;;;;461.40;1894.40;;;;;;5091588;28;19912;-57
2022/07/19 04:45:59;;;;;;;;;;;461.50;1894.40;;;;;;5091113;28;19912;-57
2022/07/19 04:48:25;;;;;;;;;;;512.20;1792.00;;;;;;5091525;28;19912;-58
2022/07/19 04:50:51;;;;;;;;;;;640.40;1433.60;;;;;;5091179;28;19916;-58
2022/07/19 04:53:16;;;;;;;;;;;717.30;1280.00;;;;;;5091024;28;20273;-58
2022/07/19 04:55:42;;;;;;;;;;;793.60;1177.60;;;;;;5091137;28;19938;-59
2022/07/19 04:58:08;;;;;;;;;;;844.80;1100.80;;;;;;5091052;28;19908;-59
2022/07/19 05:00:33;;;;;;;;;;;870.50;1024.00;;;;;;5090863;28;19923;-57
2022/07/19 05:02:59;;;;;;;;;;;896.10;972.80;;;;;;5091476;28;20002;-59
2022/07/19 05:05:24;;;;;;;;;;;921.70;947.20;;;;;;5090671;28;19919;-57
2022/07/19 05:07:50;;;;;;;;;;;921.80;947.20;;;;;;5091036;28;19977;-57
2022/07/19 05:10:15;;;;;;;;;;;947.20;921.60;;;;;;5090785;28;19951;-56
2022/07/19 05:12:41;;;;;;;;;;;973.00;896.00;;;;;;5091067;28;19913;-56
2022/07/19 05:15:07;;;;;;;;;;;973.10;896.00;;;;;;5090630;28;19999;-57
2022/07/19 05:17:33;;;;;;;;;;;973.70;870.40;;;;;;5090649;28;20365;-58
2022/07/19 05:19:59;;;;;;;;;;;998.50;896.00;;;;;;5090934;28;19909;-59
2022/07/19 05:22:25;;;;;;;;;;;998.80;896.00;;;;;;5090983;28;19912;-59
2022/07/19 05:24:51;;;;;;;;;;;998.90;896.00;;;;;;5091016;28;19908;-60
2022/07/19 05:27:17;;;;;;;;;;;1024.40;844.80;;;;;;5090543;28;20266;-60
2022/07/19 05:29:42;;;;;;;;;;;1049.70;844.80;;;;;;5090751;28;19908;-60
2022/07/19 05:32:08;;;;;;;;;;;1050.50;819.20;;;;;;5090504;28;19908;-60
2022/07/19 05:34:33;;;;;;;;;;;1076.10;768.00;;;;;;5090233;28;19973;-61
2022/07/19 05:36:59;;;;;;;;;;;1076.10;768.00;;;;;;5090722;28;20281;-60
2022/07/19 05:39:25;;;;;;;;;;;;;;;;;;5090558;28;19999;-60
2022/07/19 05:41:50;;;;;;;;;;;1101.30;793.60;;;;;;5090580;28;20000;-58
2022/07/19 05:44:16;;;;;;;;;;;1101.70;768.00;;;;;;5090408;28;19944;-60
2022/07/19 05:46:42;;;;;;;;;;;1127.00;768.00;;;;;;5090618;28;19915;-59
2022/07/19 05:49:10;;;;;;;;;;;1126.80;768.00;;;;;;5089916;28;20269;-58
2022/07/19 05:51:36;;;;;;;;;;;1126.70;768.00;;;;;;5088984;28;19916;-61
2022/07/19 05:54:02;;;;;;;;;;;1127.30;768.00;;;;;;5089109;28;20002;-59
2022/07/19 05:56:28;;;;;;;;;;;1152.40;742.40;;;;;;5090182;28;20045;-58
2022/07/19 05:58:53;;;;;;;;;;;1177.70;716.80;;;;;;5090414;28;19916;-61
2022/07/19 06:01:19;;;;;;;;;;;1178.30;691.20;;;;;;5090415;28;19920;-59
2022/07/19 06:03:50;;;;;;;;;;;1203.60;691.20;;;;;;5090152;28;19948;-60
2022/07/19 06:06:15;;;;;;;;;;;1228.80;691.20;;;;;;5090218;28;20365;-61
2022/07/19 06:08:41;;;;;;;;;;;1228.90;691.20;;;;;;5090381;28;19908;-59
2022/07/19 06:11:07;;;;;;;;;;;1204.10;691.20;;;;;;5090066;28;19912;-58
2022/07/19 06:13:33;;;;;;;;;;;;;;;;;;5090382;28;19912;-61
2022/07/19 06:15:59;;;;;;;;;;;1229.20;691.20;;;;;;5090420;28;20354;-61
2022/07/19 06:18:24;;;;;;;;;;;1254.60;691.20;;;;;;5090272;28;20380;-61
2022/07/19 06:20:50;;;;;;;;;;;1254.40;691.20;;;;;;5090303;28;19999;-60
2022/07/19 06:23:15;;;;;;;;;;;1229.40;691.20;;;;;;5090251;28;19908;-60
2022/07/19 06:25:41;;;;;;;;;;;1203.30;716.80;;;;;;5090336;28;19908;-61
2022/07/19 06:28:06;;;;;;;;;;;1229.20;691.20;;;;;;5091831;28;19916;-58
2022/07/19 06:30:32;;;;;;;;;;;1229.30;691.20;;;;;;5093949;28;20274;-61
2022/07/19 06:32:57;;;;;;;;;;;1229.70;665.60;;;;;;5093934;28;19916;-59
2022/07/19 06:35:24;;;;;;;;;;;1229.30;691.20;;;;;;5093816;28;19916;-61
2022/07/19 06:37:50;;;;;;;;;;;1254.80;691.20;;;;;;5093968;28;19916;-61
2022/07/19 06:40:15;;;;;;;;;;;1255.10;665.60;;;;;;5093554;28;19908;-62
2022/07/19 06:42:41;;;;;;;;;;;1255.30;640.00;;;;;;5093938;28;19916;-61
2022/07/19 06:45:07;;;;;;;;;;;1229.50;665.60;;;;;;5093598;28;19915;-61
2022/07/19 06:47:32;;;;;;;;;;;1229.20;665.60;;;;;;5093508;28;19908;-61
2022/07/19 06:49:58;;;;;;;;;;;1203.90;640.00;;;;;;5093517;28;19955;-61
2022/07/19 06:52:24;;;;;;;;;;;1254.40;665.60;;;;;;5093742;28;20427;-61
2022/07/19 06:54:50;;;;;;;;;;;1254.60;665.60;;;;;;5093515;28;20378;-61
2022/07/19 06:57:15;;;;;;;;;;;1229.20;665.60;;;;;;5093218;28;19908;-61
2022/07/19 06:59:41;;;;;;;;;;;1228.80;665.60;;;;;;5093435;28;19908;-62
2022/07/19 07:02:06;;;;;;;;;;;1254.80;640.00;;;;;;5093083;28;19920;-61
2022/07/19 07:04:32;;;;;;;;;;;1255.30;640.00;;;;;;5093377;28;19915;-61
2022/07/19 07:06:58;;;;;;;;;;;1254.40;665.60;;;;;;5093473;28;19958;-61
2022/07/19 07:09:23;;;;;;;;;;;1229.00;665.60;;;;;;5093719;28;19908;-62
2022/07/19 07:11:49;;;;;;;;;;;1178.30;640.00;;;;;;5093372;28;20370;-61
2022/07/19 07:14:14;;;;;;;;;;;1203.90;640.00;;;;;;5092896;28;19924;-61
2022/07/19 07:16:40;;;;;;;;;;;1254.40;640.00;;;;;;5093242;28;19908;-61
2022/07/19 07:19:05;;;;;;;;;;;1280.00;614.40;;;;;;5092845;28;20288;-62
2022/07/19 07:21:34;;;;;;;;;;;1305.90;588.80;;;;;;5092992;28;20333;-61
2022/07/19 07:24:04;;;;;;;;;;;1280.70;588.80;;;;;;5092862;28;19993;-61
2022/07/19 07:26:30;;;;;;;;;;;1280.40;588.80;;;;;;5093013;28;19908;-62
2022/07/19 07:28:55;;;;;;;;;;;1255.10;614.40;;;;;;5092817;28;19915;-61
2022/07/19 07:31:21;;;;;;;;;;;1306.00;588.80;;;;;;5092887;28;19908;-61
2022/07/19 07:33:47;;;;;;;;;;;1280.90;588.80;;;;;;5092353;28;20350;-61
2022/07/19 07:36:12;;;;;;;;;;;1254.60;640.00;;;;;;5092627;28;19912;-61
2022/07/19 07:38:38;;;;;;;;;;;1280.50;588.80;;;;;;5091760;28;19954;-62
2022/07/19 07:41:04;;;;;;;;;;;1280.70;588.80;;;;;;5092019;28;19912;-62
2022/07/19 07:43:29;;;;;;;;;;;1280.50;588.80;;;;;;5092651;28;20027;-61
2022/07/19 07:45:55;;;;;;;;;;;1229.30;640.00;;;;;;5092464;28;20010;-62
2022/07/19 07:48:21;;;;;;;;;;;1280.00;614.40;;;;;;5092490;28;19908;-62
2022/07/19 07:50:46;;;;;;;;;;;1228.80;665.60;;;;;;5092171;28;19931;-62
2022/07/19 07:53:12;;;;;;;;;;;1280.70;614.40;;;;;;5092483;28;19908;-62
2022/07/19 07:55:39;;;;;;;;;;;1280.70;588.80;;;;;;5092012;28;20396;-61
2022/07/19 07:58:09;;;;;;;;;;;1306.00;563.20;;;;;;5092120;28;19955;-62
2022/07/19 08:00:35;;;;;;;;;;;1228.90;665.60;;;;;;5092088;28;19920;-62
2022/07/19 08:03:00;;;;;;;;;;;1280.00;614.40;;;;;;5092137;28;20014;-61
2022/07/19 08:05:26;;;;;;;;;;;1305.90;588.80;;;;;;5092022;28;19908;-61
2022/07/19 08:07:52;;;;;;;;;;;1305.60;588.80;;;;;;5092094;28;19908;-59
2022/07/19 08:10:17;;;;;;;;;;;1280.00;614.40;;;;;;5092077;28;19977;-62
2022/07/19 08:12:43;;;;;;;;;;;1305.60;614.40;;;;;;5092172;28;19973;-62
2022/07/19 08:15:09;;;;;;;;;;;1305.60;563.20;;;;;;5091808;28;20436;-61
2022/07/19 08:17:34;;;;;;;;;;;1255.00;614.40;;;;;;5091774;28;20026;-62
2022/07/19 08:20:00;;;;;;;;;;;1254.90;614.40;;;;;;5091830;28;19954;-61
2022/07/19 08:22:27;;;;;;;;;;;1254.50;640.00;;;;;;5091765;28;19962;-60
2022/07/19 08:24:53;;;;;;;;;;;1203.30;640.00;;;;;;5091969;28;19911;-62
2022/07/19 08:27:18;;;;;;;;;;;1075.80;716.80;;;;;;5091744;28;19912;-60
2022/07/19 08:29:44;;;;;;;;;;;1024.50;742.40;;;;;;5091542;28;19919;-60
2022/07/19 08:32:09;;;;;;;;;;;973.00;819.20;;;;;;5091690;28;19915;-59
2022/07/19 08:34:35;;;;;;;;;;;947.50;819.20;;;;;;5091398;28;20251;-58
2022/07/19 08:37:00;;;;;;;;;;;947.90;844.80;;;;;;5091620;28;19908;-58
2022/07/19 08:39:26;;;;;;;;;;;922.10;844.80;;;;;;5091242;28;19908;-58
2022/07/19 08:41:52;;;;;;;;;;;922.10;870.40;;;;;;5091700;28;19916;-59
2022/07/19 08:44:18;;;;;;;;;;;921.80;870.40;;;;;;5091290;28;19919;-58
2022/07/19 08:46:43;;;;;;;;;;;896.00;870.40;;;;;;5091487;28;20450;-59
2022/07/19 08:49:09;;;;;;;;;;;870.80;921.60;;;;;;5091230;28;19908;-58
2022/07/19 08:51:35;;;;;;;;;;;870.70;896.00;;;;;;5090698;28;19912;-59
2022/07/19 08:54:01;;;;;;;;;;;845.20;947.20;;;;;;5091202;28;19950;-58
2022/07/19 08:59:11;;;;;;;;;;;845.20;947.20;;;;;;5091567;28;19954;-59
2022/07/19 09:01:37;;;;;;;;;;;845.70;947.20;;;;;;5090686;28;19920;-58
2022/07/19 09:04:03;;;;;;;;;;;870.50;947.20;;;;;;5091044;28;19953;-58
2022/07/19 09:06:37;;;;;;;;;;;845.50;947.20;;;;;;5091003;28;20282;-58
2022/07/19 09:09:04;;;;;;;;;;;845.20;947.20;;;;;;5091032;28;20424;-58
2022/07/19 09:11:33;;;;;;;;;;;844.80;947.20;;;;;;5091076;28;19912;-58
2022/07/19 09:14:09;;;;;;;;;;;845.00;947.20;;;;;;5090958;28;19916;-58
2022/07/19 09:16:48;;;;;;;;;;;845.00;947.20;;;;;;5090766;28;19920;-58
2022/07/19 09:19:13;;;;;;;;;;;845.20;972.80;;;;;;5090555;28;19936;-58
2022/07/19 09:21:55;;;;;;;;;;;845.70;947.20;;;;;;5090887;28;19908;-58
2022/07/19 09:24:21;;;;;;;;;;;845.30;947.20;;;;;;5090969;28;19908;-58
2022/07/19 09:26:54;;;;;;;;;;;845.50;921.60;;;;;;5090656;28;19947;-59
2022/07/19 09:29:19;;;;;;;;;;;845.30;947.20;;;;;;5090740;28;19914;-59
2022/07/19 09:32:01;;;;;;;;;;;845.50;947.20;;;;;;5090521;28;20331;-59
2022/07/19 09:34:31;;;;;;;;;;;844.90;972.80;;;;;;5090461;28;19969;-59
2022/07/19 09:37:17;;;;;;;;;;;845.40;947.20;;;;;;5090676;28;19961;-59
2022/07/19 09:39:45;;;;;;;;;;;845.40;947.20;;;;;;5090241;28;20354;-59
2022/07/19 09:42:11;;;;;;;;;;;820.10;947.20;;;;;;5090808;28;19915;-59
2022/07/19 09:44:37;;;;;;;;;;;845.20;972.80;;;;;;5090388;28;19923;-59
2022/07/19 09:47:03;;;;;;;;;;;845.40;998.40;;;;;;5090572;28;19908;-58
2022/07/19 09:49:28;;;;;;;;;;;819.40;998.40;;;;;;5090293;28;20354;-58
2022/07/19 09:51:54;;;;;;;;;;;819.60;1024.00;;;;;;5090560;28;19919;-58
2022/07/19 09:54:30;;;;;;;;;;;819.80;998.40;;;;;;5090385;28;19919;-58
2022/07/19 09:56:56;;;;;;;;;;;819.60;998.40;;;;;;5090756;28;20034;-59
2022/07/19 09:59:22;;;;;;;;;;;819.20;972.80;;;;;;5090479;28;19921;-59
2022/07/19 10:01:48;;;;;;;;;;;819.50;972.80;;;;;;5089937;28;19927;-58
2022/07/19 10:04:15;;;;;;;;;;;819.20;998.40;;;;;;5093919;28;19914;-58
2022/07/19 10:06:41;;;;;;;;;;;819.20;998.40;;;;;;5094515;28;19912;-59
2022/07/19 10:09:08;;;;;;;;;;;819.20;972.80;;;;;;5094138;28;19908;-59
2022/07/19 10:11:34;;;;;;;;;;;819.40;972.80;;;;;;5094462;28;19912;-59
2022/07/19 10:14:00;;;;;;;;;;;819.50;947.20;;;;;;5094192;28;19920;-58
2022/07/19 10:16:29;;;;;;;;;;;794.30;972.80;;;;;;5094503;28;19908;-58
2022/07/19 10:19:08;;;;;;;;;;;819.20;947.20;;;;;;5094126;28;19966;-59
2022/07/19 10:21:35;;;;;;;;;;;819.40;947.20;;;;;;5094043;28;19908;-59
2022/07/19 10:24:00;;;;;;;;;;;819.30;972.80;;;;;;5094112;28;19916;-58
2022/07/19 10:26:36;;;;;;;;;;;794.50;947.20;;;;;;5093985;28;19908;-59
2022/07/19 10:29:12;;;;;;;;;;;794.20;972.80;;;;;;5093979;28;19915;-59
2022/07/19 10:31:38;;;;;;;;;;;794.30;972.80;;;;;;5093957;28;19908;-59
2022/07/19 10:34:08;;;;;;;;;;;819.30;972.80;;;;;;5093670;28;19935;-59
2022/07/19 10:36:43;;;;;;;;;;;794.50;947.20;;;;;;5093954;28;19908;-58
2022/07/19 10:39:17;;;;;;;;;;;794.50;972.80;;;;;;5093962;28;20320;-58
2022/07/19 10:42:02;;;;;;;;;;;794.20;998.40;;;;;;5093950;28;19912;-59
2022/07/19 10:44:27;;;;;;;;;;;794.50;972.80;;;;;;5093680;28;20369;-59
2022/07/19 10:46:53;;;;;;;;;;;794.30;998.40;;;;;;5093737;28;19908;-59
2022/07/19 10:49:37;;;;;;;;;;;794.00;972.80;;;;;;5093571;28;19940;-58
2022/07/19 10:52:21;;;;;;;;;;;794.00;972.80;;;;;;5093693;28;19914;-58
2022/07/19 10:54:47;;;;;;;;;;;793.80;972.80;;;;;;5093274;28;19967;-58
2022/07/19 10:57:12;;;;;;;;;;;794.10;972.80;;;;;;5093606;28;19950;-58
2022/07/19 10:59:41;;;;;;;;;;;794.20;972.80;;;;;;5093229;28;19916;-58
2022/07/19 11:02:20;;;;;;;;;;;794.20;998.40;;;;;;5093118;28;19920;-59
2022/07/19 11:04:46;;;;;;;;;;;793.70;1024.00;;;;;;5093287;28;19990;-58
2022/07/19 11:07:16;;;;;;;;;;;793.90;1024.00;;;;;;5093399;28;20392;-58
2022/07/19 11:09:46;;;;;;;;;;;793.80;998.40;;;;;;5093338;28;19915;-58
2022/07/19 11:12:21;;;;;;;;;;;793.60;1024.00;;;;;;5093277;28;19912;-58
2022/07/19 11:14:46;;;;;;;;;;;794.00;1024.00;;;;;;5092698;28;20263;-59
2022/07/19 11:17:12;;;;;;;;;;;793.90;998.40;;;;;;5093355;28;19961;-58
2022/07/19 11:19:55;;;;;;;;;;;793.70;1024.00;;;;;;5092823;28;19931;-58
2022/07/19 11:22:20;;;;;;;;;;;768.90;998.40;;;;;;5093161;28;19908;-58
2022/07/19 11:24:46;;;;;;;;;;;793.80;998.40;;;;;;5092783;28;20046;-59
2022/07/19 11:27:12;;;;;;;;;;;793.80;1024.00;;;;;;5092846;28;19912;-58
2022/07/19 11:29:56;;;;;;;;;;;794.20;1024.00;;;;;;5092591;28;19975;-59
2022/07/19 11:32:22;;;;;;;;;;;794.20;1024.00;;;;;;5092983;28;19912;-58
2022/07/19 11:35:01;;;;;;;;;;;794.40;998.40;;;;;;5092532;28;20393;-58
2022/07/19 11:37:28;;;;;;;;;;;794.20;998.40;;;;;;5092668;28;20320;-59
2022/07/19 11:39:54;;;;;;;;;;;794.00;998.40;;;;;;5092458;28;20420;-59
2022/07/19 11:42:30;;;;;;;;;;;794.10;998.40;;;;;;5093015;28;19992;-58
2022/07/19 11:44:55;;;;;;;;;;;794.20;972.80;;;;;;5092542;28;19912;-59
2022/07/19 11:47:21;;;;;;;;;;;793.70;998.40;;;;;;5092446;28;20350;-58
2022/07/19 11:49:47;;;;;;;;;;;794.00;998.40;;;;;;5092199;28;19955;-58
2022/07/19 11:52:12;;;;;;;;;;;794.00;998.40;;;;;;5092500;28;20003;-59
2022/07/19 11:54:40;;;;;;;;;;;793.80;972.80;;;;;;5092129;28;19915;-58
2022/07/19 11:57:24;;;;;;;;;;;794.10;998.40;;;;;;5092502;28;19915;-58
2022/07/19 11:59:50;;;;;;;;;;;793.70;998.40;;;;;;5092199;28;19908;-58
2022/07/19 12:02:15;;;;;;;;;;;793.70;998.40;;;;;;5092065;28;19923;-59
2022/07/19 12:04:41;;;;;;;;;;;794.10;1024.00;;;;;;5092194;28;19991;-59
2022/07/19 12:07:07;;;;;;;;;;;794.20;998.40;;;;;;5091915;28;19915;-58
2022/07/19 12:09:33;;;;;;;;;;;794.00;1024.00;;;;;;5092394;28;19962;-58
2022/07/19 12:12:11;;;;;;;;;;;794.10;1024.00;;;;;;5091991;28;19912;-59
2022/07/19 12:14:37;;;;;;;;;;;794.00;998.40;;;;;;5091794;28;20396;-59
2022/07/19 12:17:14;;;;;;;;;;;794.00;998.40;;;;;;5092041;28;20361;-58
2022/07/19 12:19:41;;;;;;;;;;;794.00;998.40;;;;;;5091845;28;19908;-58
2022/07/19 12:22:25;;;;;;;;;;;793.80;998.40;;;;;;5091774;28;19909;-58
2022/07/19 12:24:50;;;;;;;;;;;793.60;1024.00;;;;;;5091563;28;19908;-59
2022/07/19 12:27:16;;;;;;;;;;;794.00;1049.60;;;;;;5091501;28;19930;-58
2022/07/19 12:29:46;;;;;;;;;;;794.10;1024.00;;;;;;5091648;28;19908;-59
2022/07/19 12:32:13;;;;;;;;;;;794.00;998.40;;;;;;5091720;28;19908;-57
2022/07/19 12:34:48;;;;;;;;;;;794.10;998.40;;;;;;5091561;28;19916;-57
2022/07/19 12:37:23;;;;;;;;;;;794.20;998.40;;;;;;5091631;28;20006;-59
2022/07/19 12:40:07;;;;;;;;;;;794.10;972.80;;;;;;5091592;28;20003;-58
2022/07/19 12:42:37;;;;;;;;;;;794.00;947.20;;;;;;5091567;28;19925;-59
2022/07/19 12:45:04;;;;;;;;;;;794.00;972.80;;;;;;5091491;28;19941;-59
2022/07/19 12:47:30;;;;;;;;;;;794.00;947.20;;;;;;5091267;28;20358;-58
2022/07/19 12:49:55;;;;;;;;;;;794.00;921.60;;;;;;5091369;28;19915;-58
2022/07/19 12:52:21;;;;;;;;;;;794.10;947.20;;;;;;5091419;28;19915;-59
2022/07/19 12:54:46;;;;;;;;;;;793.70;972.80;;;;;;5091145;28;19916;-58
2022/07/19 12:57:12;;;;;;;;;;;794.10;947.20;;;;;;5091287;28;19908;-58
2022/07/19 12:59:40;;;;;;;;;;;794.30;972.80;;;;;;5091006;28;20038;-58
2022/07/19 13:02:07;;;;;;;;;;;794.50;972.80;;;;;;5090854;28;19921;-58
2022/07/19 13:04:32;;;;;;;;;;;819.30;972.80;;;;;;5091298;28;20282;-58
2022/07/19 13:06:58;;;;;;;;;;;819.50;972.80;;;;;;5091180;28;19908;-58
2022/07/19 13:09:23;;;;;;;;;;;819.50;921.60;;;;;;5091243;28;20302;-59
2022/07/19 13:11:49;;;;;;;;;;;819.60;972.80;;;;;;5090914;28;20259;-59
2022/07/19 13:14:14;;;;;;;;;;;819.60;972.80;;;;;;5090759;28;19924;-58
2022/07/19 13:16:40;;;;;;;;;;;819.40;947.20;;;;;;5091014;28;19908;-59
2022/07/19 13:19:06;;;;;;;;;;;819.30;972.80;;;;;;5090831;28;19908;-59
2022/07/19 13:21:32;;;;;;;;;;;794.50;972.80;;;;;;5091036;28;19912;-59
2022/07/19 13:23:57;;;;;;;;;;;794.30;972.80;;;;;;5090885;28;19908;-59
2022/07/19 13:26:23;;;;;;;;;;;794.30;947.20;;;;;;5090978;28;20257;-59
2022/07/19 13:28:49;;;;;;;;;;;794.20;947.20;;;;;;5090888;28;19919;-59
2022/07/19 13:31:14;;;;;;;;;;;794.50;947.20;;;;;;5090459;28;19920;-59
2022/07/19 13:33:40;;;;;;;;;;;794.50;947.20;;;;;;5090776;28;20298;-58
2022/07/19 13:36:05;;;;;;;;;;;794.30;947.20;;;;;;5090337;28;19916;-58
2022/07/19 13:38:31;;;;;;;;;;;794.40;947.20;;;;;;5090850;28;19915;-58
2022/07/19 13:40:56;;;;;;;;;;;794.30;998.40;;;;;;5090495;28;19912;-60
2022/07/19 13:43:22;;;;;;;;;;;794.50;998.40;;;;;;5090581;28;19921;-59
2022/07/19 13:45:48;;;;;;;;;;;794.30;972.80;;;;;;5090375;28;20409;-60
2022/07/19 13:48:13;;;;;;;;;;;794.20;998.40;;;;;;5090721;28;19908;-57